createdAt,value
2018-07-13T00:00:12.850Z,15.86
2018-07-13T00:01:12.852Z,15.84
2018-07-13T00:02:12.857Z,15.84
2018-07-13T00:03:12.855Z,15.82
2018-07-13T00:04:12.855Z,15.82
2018-07-13T00:05:12.859Z,15.82
2018-07-13T00:06:12.880Z,15.78
2018-07-13T00:07:12.863Z,15.74
2018-07-13T00:08:12.865Z,15.76
2018-07-13T00:09:12.871Z,15.84
2018-07-13T00:10:12.872Z,15.72
2018-07-13T00:11:12.870Z,15.79
2018-07-13T00:12:12.875Z,15.76
2018-07-13T00:13:12.876Z,15.82
2018-07-13T00:14:12.880Z,15.60
2018-07-13T00:15:12.880Z,15.67
2018-07-13T00:16:12.883Z,15.74
2018-07-13T00:17:12.885Z,15.68
2018-07-13T00:18:12.882Z,15.74
2018-07-13T00:19:12.885Z,15.64
2018-07-13T00:20:12.888Z,15.64
2018-07-13T00:21:12.891Z,15.61
2018-07-13T00:22:12.891Z,15.57
2018-07-13T00:23:12.895Z,15.52
2018-07-13T00:24:12.897Z,15.52
2018-07-13T00:25:12.898Z,15.48
2018-07-13T00:26:12.899Z,15.43
2018-07-13T00:27:12.900Z,15.41
2018-07-13T00:28:12.905Z,15.39
2018-07-13T00:29:12.901Z,15.35
2018-07-13T00:30:12.906Z,15.38
2018-07-13T00:31:12.912Z,15.39
2018-07-13T00:32:12.910Z,15.42
2018-07-13T00:33:12.910Z,15.35
2018-07-13T00:34:12.916Z,15.35
2018-07-13T00:35:12.913Z,15.39
2018-07-13T00:36:12.917Z,15.31
2018-07-13T00:37:12.918Z,15.26
2018-07-13T00:38:12.934Z,15.36
2018-07-13T00:39:12.925Z,15.33
2018-07-13T00:40:12.923Z,15.33
2018-07-13T00:41:12.927Z,15.27
2018-07-13T00:42:12.927Z,15.31
2018-07-13T00:43:12.931Z,15.28
2018-07-13T00:44:12.928Z,15.24
2018-07-13T00:45:12.937Z,15.26
2018-07-13T00:46:12.931Z,15.24
2018-07-13T00:47:12.941Z,15.24
2018-07-13T00:48:12.932Z,15.23
2018-07-13T00:49:12.936Z,15.24
2018-07-13T00:50:12.956Z,15.23
2018-07-13T00:51:12.959Z,15.21
2018-07-13T00:52:13.036Z,15.17
2018-07-13T00:53:12.946Z,15.24
2018-07-13T00:54:12.945Z,15.17
2018-07-13T00:55:12.951Z,15.19
2018-07-13T00:56:12.949Z,15.20
2018-07-13T00:57:12.951Z,15.12
2018-07-13T00:58:12.952Z,15.17
2018-07-13T00:59:12.950Z,15.13
2018-07-13T01:00:12.952Z,15.15
2018-07-13T01:01:12.957Z,15.15
2018-07-13T01:02:12.959Z,15.06
2018-07-13T01:03:12.956Z,15.17
2018-07-13T01:04:12.964Z,15.01
2018-07-13T01:05:12.960Z,14.98
2018-07-13T01:06:12.969Z,15.06
2018-07-13T01:07:12.962Z,15.02
2018-07-13T01:08:12.967Z,15.01
2018-07-13T01:09:12.975Z,14.99
2018-07-13T01:10:12.974Z,15.05
2018-07-13T01:11:12.979Z,15.02
2018-07-13T01:12:12.971Z,14.98
2018-07-13T01:13:12.974Z,15.03
2018-07-13T01:14:12.976Z,14.99
2018-07-13T01:15:12.978Z,14.83
2018-07-13T01:16:12.977Z,14.87
2018-07-13T01:17:12.980Z,14.84
2018-07-13T01:18:12.978Z,14.90
2018-07-13T01:19:12.980Z,14.91
2018-07-13T01:20:12.989Z,14.90
2018-07-13T01:21:12.985Z,14.83
2018-07-13T01:22:13.003Z,14.75
2018-07-13T01:23:12.992Z,14.80
2018-07-13T01:24:13.005Z,14.72
2018-07-13T01:25:12.990Z,14.81
2018-07-13T01:26:12.992Z,14.80
2018-07-13T01:27:12.993Z,14.69
2018-07-13T01:28:12.993Z,14.74
2018-07-13T01:29:12.996Z,14.80
2018-07-13T01:30:12.995Z,14.81
2018-07-13T01:31:12.998Z,14.68
2018-07-13T01:32:13.000Z,14.71
2018-07-13T01:33:13.002Z,14.80
2018-07-13T01:34:13.001Z,14.78
2018-07-13T01:35:13.022Z,14.67
2018-07-13T01:36:13.026Z,14.74
2018-07-13T01:37:13.008Z,14.81
2018-07-13T01:38:13.006Z,14.83
2018-07-13T01:39:13.005Z,14.81
2018-07-13T01:40:13.012Z,14.75
2018-07-13T01:41:13.007Z,14.71
2018-07-13T01:42:13.016Z,14.75
2018-07-13T01:43:13.014Z,14.80
2018-07-13T01:44:13.011Z,14.78
2018-07-13T01:45:13.011Z,14.74
2018-07-13T01:46:13.019Z,14.74
2018-07-13T01:47:13.014Z,14.75
2018-07-13T01:48:13.017Z,14.83
2018-07-13T01:49:13.026Z,14.74
2018-07-13T01:50:13.019Z,14.75
2018-07-13T01:51:13.019Z,14.83
2018-07-13T01:52:13.021Z,14.80
2018-07-13T01:53:13.031Z,14.74
2018-07-13T01:54:13.022Z,14.74
2018-07-13T01:55:13.028Z,14.84
2018-07-13T01:56:13.024Z,14.83
2018-07-13T01:57:13.029Z,14.87
2018-07-13T01:58:13.028Z,14.98
2018-07-13T01:59:13.028Z,14.90
2018-07-13T02:00:13.031Z,14.87
2018-07-13T02:01:13.034Z,14.83
2018-07-13T02:02:13.033Z,14.86
2018-07-13T02:03:13.038Z,14.88
2018-07-13T02:04:13.037Z,14.81
2018-07-13T02:05:13.036Z,14.71
2018-07-13T02:06:13.037Z,14.84
2018-07-13T02:07:13.037Z,14.78
2018-07-13T02:08:13.041Z,14.75
2018-07-13T02:09:13.062Z,14.81
2018-07-13T02:10:13.042Z,14.74
2018-07-13T02:11:13.040Z,14.72
2018-07-13T02:12:13.049Z,14.75
2018-07-13T02:13:13.048Z,14.61
2018-07-13T02:14:13.046Z,14.65
2018-07-13T02:15:13.062Z,14.68
2018-07-13T02:16:13.047Z,14.68
2018-07-13T02:17:13.086Z,14.64
2018-07-13T02:18:13.051Z,14.67
2018-07-13T02:19:13.056Z,14.69
2018-07-13T02:20:13.059Z,14.69
2018-07-13T02:21:13.055Z,14.68
2018-07-13T02:22:13.059Z,14.71
2018-07-13T02:23:13.059Z,14.67
2018-07-13T02:24:13.064Z,14.71
2018-07-13T02:25:13.061Z,14.68
2018-07-13T02:26:13.059Z,14.75
2018-07-13T02:27:13.076Z,14.75
2018-07-13T02:28:13.061Z,14.78
2018-07-13T02:29:13.064Z,14.75
2018-07-13T02:30:13.067Z,14.94
2018-07-13T02:31:13.074Z,14.84
2018-07-13T02:32:13.066Z,14.94
2018-07-13T02:33:13.068Z,15.03
2018-07-13T02:34:13.075Z,15.02
2018-07-13T02:35:13.070Z,14.95
2018-07-13T02:36:13.071Z,15.02
2018-07-13T02:37:13.076Z,15.02
2018-07-13T02:38:13.072Z,14.98
2018-07-13T02:39:13.128Z,15.03
2018-07-13T02:40:13.074Z,15.05
2018-07-13T02:41:13.086Z,15.01
2018-07-13T02:42:13.081Z,15.01
2018-07-13T02:43:13.083Z,15.02
2018-07-13T02:44:13.079Z,14.94
2018-07-13T02:45:13.088Z,14.90
2018-07-13T02:46:13.090Z,15.02
2018-07-13T02:47:13.091Z,15.03
2018-07-13T02:48:13.105Z,14.94
2018-07-13T02:49:13.108Z,15.01
2018-07-13T02:50:13.093Z,15.05
2018-07-13T02:51:13.088Z,15.06
2018-07-13T02:52:13.095Z,15.05
2018-07-13T02:53:13.122Z,15.05
2018-07-13T02:54:13.091Z,15.06
2018-07-13T02:55:13.103Z,15.05
2018-07-13T02:56:13.094Z,15.01
2018-07-13T02:57:13.106Z,15.01
2018-07-13T02:58:13.098Z,14.99
2018-07-13T02:59:13.099Z,15.03
2018-07-13T03:00:13.107Z,14.87
2018-07-13T03:01:13.108Z,15.02
2018-07-13T03:02:13.106Z,14.93
2018-07-13T03:03:13.106Z,14.90
2018-07-13T03:04:13.107Z,14.93
2018-07-13T03:05:13.125Z,14.91
2018-07-13T03:06:13.107Z,14.98
2018-07-13T03:07:13.108Z,14.93
2018-07-13T03:08:13.117Z,15.02
2018-07-13T03:09:13.110Z,15.03
2018-07-13T03:10:13.111Z,14.95
2018-07-13T03:11:13.132Z,14.98
2018-07-13T03:12:13.115Z,15.06
2018-07-13T03:13:13.116Z,15.03
2018-07-13T03:14:13.120Z,14.98
2018-07-13T03:15:13.116Z,15.03
2018-07-13T03:16:13.123Z,15.03
2018-07-13T03:17:13.123Z,14.95
2018-07-13T03:18:13.131Z,14.90
2018-07-13T03:19:13.122Z,14.98
2018-07-13T03:20:13.123Z,14.98
2018-07-13T03:21:13.129Z,14.93
2018-07-13T03:22:13.239Z,15.02
2018-07-13T03:23:13.129Z,15.06
2018-07-13T03:24:13.132Z,15.09
2018-07-13T03:25:13.130Z,15.03
2018-07-13T03:26:13.131Z,15.17
2018-07-13T03:27:13.144Z,15.20
2018-07-13T03:28:13.130Z,15.21
2018-07-13T03:29:13.136Z,15.15
2018-07-13T03:30:13.134Z,15.15
2018-07-13T03:31:13.133Z,15.11
2018-07-13T03:32:13.143Z,15.09
2018-07-13T03:33:13.147Z,15.12
2018-07-13T03:34:13.140Z,15.12
2018-07-13T03:35:13.141Z,15.03
2018-07-13T03:36:13.144Z,15.06
2018-07-13T03:37:13.144Z,15.17
2018-07-13T03:38:13.145Z,15.13
2018-07-13T03:39:13.148Z,15.11
2018-07-13T03:40:13.147Z,15.15
2018-07-13T03:41:13.150Z,15.11
2018-07-13T03:42:13.149Z,15.20
2018-07-13T03:43:13.164Z,15.23
2018-07-13T03:44:13.152Z,15.15
2018-07-13T03:45:13.153Z,15.23
2018-07-13T03:46:13.157Z,15.20
2018-07-13T03:47:13.157Z,15.24
2018-07-13T03:48:13.223Z,15.24
2018-07-13T03:49:13.172Z,15.33
2018-07-13T03:50:13.163Z,15.27
2018-07-13T03:51:13.159Z,15.30
2018-07-13T03:52:13.164Z,15.33
2018-07-13T03:53:13.166Z,15.35
2018-07-13T03:54:13.181Z,15.35
2018-07-13T03:55:13.172Z,15.43
2018-07-13T03:56:13.170Z,15.33
2018-07-13T03:57:13.195Z,15.36
2018-07-13T03:58:13.176Z,15.38
2018-07-13T03:59:13.171Z,15.42
2018-07-13T04:00:13.170Z,15.46
2018-07-13T04:01:13.177Z,15.41
2018-07-13T04:02:13.176Z,15.42
2018-07-13T04:03:13.190Z,15.36
2018-07-13T04:04:13.177Z,15.51
2018-07-13T04:05:13.187Z,15.46
2018-07-13T04:06:13.182Z,15.59
2018-07-13T04:07:13.181Z,15.54
2018-07-13T04:08:13.189Z,15.56
2018-07-13T04:09:13.185Z,15.56
2018-07-13T04:10:13.190Z,15.54
2018-07-13T04:11:13.189Z,15.64
2018-07-13T04:12:13.201Z,15.61
2018-07-13T04:13:13.189Z,15.66
2018-07-13T04:14:13.192Z,15.64
2018-07-13T04:15:13.194Z,15.64
2018-07-13T04:16:13.210Z,15.68
2018-07-13T04:17:13.200Z,15.75
2018-07-13T04:18:13.205Z,15.79
2018-07-13T04:19:13.201Z,15.67
2018-07-13T04:20:13.203Z,15.84
2018-07-13T04:21:13.204Z,15.78
2018-07-13T04:22:13.206Z,15.81
2018-07-13T04:23:13.209Z,15.78
2018-07-13T04:24:13.209Z,15.72
2018-07-13T04:25:13.209Z,15.81
2018-07-13T04:26:13.220Z,15.76
2018-07-13T04:27:13.217Z,15.82
2018-07-13T04:28:13.218Z,15.82
2018-07-13T04:29:13.220Z,15.81
2018-07-13T04:30:13.220Z,15.78
2018-07-13T04:31:13.222Z,15.85
2018-07-13T04:32:13.220Z,15.93
2018-07-13T04:33:13.223Z,15.92
2018-07-13T04:34:13.264Z,15.97
2018-07-13T04:35:13.227Z,15.97
2018-07-13T04:36:13.231Z,15.99
2018-07-13T04:37:13.232Z,15.99
2018-07-13T04:38:13.235Z,15.97
2018-07-13T04:39:13.234Z,15.97
2018-07-13T04:40:13.236Z,15.99
2018-07-13T04:41:13.239Z,16.04
2018-07-13T04:42:13.243Z,16.12
2018-07-13T04:43:13.243Z,16.11
2018-07-13T04:44:13.245Z,16.16
2018-07-13T04:45:13.246Z,16.09
2018-07-13T04:46:13.252Z,16.09
2018-07-13T04:47:13.251Z,16.23
2018-07-13T04:48:13.252Z,16.25
2018-07-13T04:49:13.254Z,16.33
2018-07-13T04:50:13.276Z,16.23
2018-07-13T04:51:13.269Z,16.26
2018-07-13T04:52:13.259Z,16.31
2018-07-13T04:53:13.263Z,16.30
2018-07-13T04:54:13.264Z,16.35
2018-07-13T04:55:13.267Z,16.38
2018-07-13T04:56:13.268Z,16.48
2018-07-13T04:57:13.279Z,16.49
2018-07-13T04:58:13.274Z,16.48
2018-07-13T04:59:13.272Z,16.52
2018-07-13T05:00:13.275Z,16.63
2018-07-13T05:01:13.278Z,16.59
2018-07-13T05:02:13.282Z,16.68
2018-07-13T05:03:13.286Z,16.63
2018-07-13T05:04:13.284Z,16.71
2018-07-13T05:05:13.286Z,16.81
2018-07-13T05:06:13.342Z,16.81
2018-07-13T05:07:13.293Z,16.85
2018-07-13T05:08:13.295Z,16.83
2018-07-13T05:09:13.295Z,16.92
2018-07-13T05:10:13.302Z,16.93
2018-07-13T05:11:13.300Z,16.95
2018-07-13T05:12:13.299Z,17.04
2018-07-13T05:13:13.305Z,16.98
2018-07-13T05:14:13.306Z,17.13
2018-07-13T05:15:13.309Z,17.10
2018-07-13T05:16:13.311Z,17.15
2018-07-13T05:17:13.315Z,17.25
2018-07-13T05:18:13.315Z,17.18
2018-07-13T05:19:13.318Z,17.28
2018-07-13T05:20:13.321Z,17.29
2018-07-13T05:21:13.373Z,17.36
2018-07-13T05:22:13.326Z,17.43
2018-07-13T05:23:13.331Z,17.33
2018-07-13T05:24:13.337Z,17.48
2018-07-13T05:25:13.336Z,17.41
2018-07-13T05:26:13.338Z,17.41
2018-07-13T05:27:13.340Z,17.46
2018-07-13T05:28:13.342Z,17.50
2018-07-13T05:29:13.350Z,17.44
2018-07-13T05:30:13.379Z,17.59
2018-07-13T05:31:13.350Z,17.54
2018-07-13T05:32:13.354Z,17.63
2018-07-13T05:33:13.355Z,17.63
2018-07-13T05:34:13.361Z,17.69
2018-07-13T05:35:13.367Z,17.76
2018-07-13T05:36:13.373Z,17.84
2018-07-13T05:37:13.372Z,17.85
2018-07-13T05:38:13.372Z,17.84
2018-07-13T05:39:13.375Z,17.95
2018-07-13T05:40:13.377Z,17.89
2018-07-13T05:41:24.240Z,17.99
2018-07-13T05:43:06.784Z,18.13
2018-07-13T05:44:06.787Z,18.15
2018-07-13T05:45:59.652Z,18.13
2018-07-13T05:46:59.664Z,18.25
2018-07-13T05:48:52.580Z,18.29
2018-07-13T05:49:52.532Z,18.34
2018-07-13T05:50:52.541Z,18.36
2018-07-13T05:51:52.540Z,18.34
2018-07-13T05:52:52.557Z,18.44
2018-07-13T05:53:52.543Z,18.49
2018-07-13T05:54:52.548Z,18.61
2018-07-13T05:55:52.558Z,18.61
2018-07-13T05:56:52.555Z,18.65
2018-07-13T05:57:52.557Z,18.64
2018-07-13T05:58:52.559Z,18.79
2018-07-13T05:59:52.565Z,18.76
2018-07-13T06:00:52.570Z,18.87
2018-07-13T06:01:52.571Z,18.94
2018-07-13T06:02:52.575Z,18.91
2018-07-13T06:03:52.596Z,18.99
2018-07-13T06:04:52.584Z,18.97
2018-07-13T06:05:52.598Z,18.99
2018-07-13T06:06:52.588Z,18.95
2018-07-13T06:07:52.594Z,18.98
2018-07-13T06:08:52.609Z,18.99
2018-07-13T06:09:52.602Z,19.01
2018-07-13T06:10:52.604Z,19.17
2018-07-13T06:11:52.613Z,19.13
2018-07-13T06:12:52.613Z,19.17
2018-07-13T06:13:52.624Z,19.10
2018-07-13T06:14:52.628Z,19.14
2018-07-13T06:15:52.633Z,19.18
2018-07-13T06:16:52.630Z,19.18
2018-07-13T06:17:52.632Z,19.21
2018-07-13T06:18:52.637Z,19.20
2018-07-13T06:19:52.637Z,19.21
2018-07-13T06:20:52.639Z,19.21
2018-07-13T06:21:52.647Z,19.20
2018-07-13T06:22:52.649Z,19.21
2018-07-13T06:23:52.654Z,19.35
2018-07-13T06:24:52.666Z,19.31
2018-07-13T06:25:52.662Z,19.35
2018-07-13T06:26:52.668Z,19.35
2018-07-13T06:27:52.682Z,19.47
2018-07-13T06:28:52.686Z,19.36
2018-07-13T06:29:52.689Z,19.42
2018-07-13T06:30:52.684Z,19.39
2018-07-13T06:31:52.685Z,19.38
2018-07-13T06:32:52.690Z,19.36
2018-07-13T06:33:52.698Z,19.43
2018-07-13T06:34:52.699Z,19.42
2018-07-13T06:35:52.704Z,19.50
2018-07-13T06:36:52.707Z,19.40
2018-07-13T06:37:52.712Z,19.32
2018-07-13T06:38:52.715Z,19.33
2018-07-13T06:39:52.716Z,19.36
2018-07-13T06:40:52.722Z,19.38
2018-07-13T06:41:52.731Z,19.46
2018-07-13T06:42:52.730Z,19.47
2018-07-13T06:43:52.733Z,19.58
2018-07-13T06:44:52.786Z,19.61
2018-07-13T06:45:52.745Z,19.80
2018-07-13T06:46:52.765Z,20.16
2018-07-13T06:47:52.768Z,20.49
2018-07-13T06:48:52.757Z,20.79
2018-07-13T06:49:52.769Z,20.80
2018-07-13T06:50:52.851Z,20.83
2018-07-13T06:51:52.767Z,20.98
2018-07-13T06:52:52.773Z,20.83
2018-07-13T06:53:52.777Z,20.99
2018-07-13T06:54:52.780Z,20.99
2018-07-13T06:55:52.801Z,21.01
2018-07-13T06:56:52.854Z,21.17
2018-07-13T06:57:52.797Z,21.72
2018-07-13T06:58:52.801Z,22.27
2018-07-13T06:59:52.806Z,22.89
2018-07-13T07:00:52.887Z,23.60
2018-07-13T07:01:52.812Z,24.22
2018-07-13T07:02:52.825Z,24.57
2018-07-13T07:03:52.823Z,25.02
2018-07-13T07:04:52.838Z,25.24
2018-07-13T07:05:52.834Z,25.27
2018-07-13T07:06:52.841Z,24.91
2018-07-13T07:07:52.845Z,24.61
2018-07-13T07:08:52.852Z,24.73
2018-07-13T07:09:52.858Z,24.60
2018-07-13T07:10:52.863Z,24.53
2018-07-13T07:11:52.869Z,24.32
2018-07-13T07:12:52.875Z,24.04
2018-07-13T07:13:52.877Z,23.76
2018-07-13T07:14:52.888Z,23.57
2018-07-13T07:15:52.892Z,23.27
2018-07-13T07:16:52.898Z,23.09
2018-07-13T07:17:52.982Z,23.07
2018-07-13T07:18:52.912Z,22.86
2018-07-13T07:19:52.918Z,22.59
2018-07-13T07:20:52.925Z,22.44
2018-07-13T07:21:52.928Z,22.13
2018-07-13T07:22:52.936Z,21.99
2018-07-13T07:23:52.939Z,21.81
2018-07-13T07:24:52.946Z,21.66
2018-07-13T07:25:52.952Z,21.63
2018-07-13T07:26:52.958Z,21.63
2018-07-13T07:27:52.961Z,21.66
2018-07-13T07:28:52.970Z,21.66
2018-07-13T07:29:52.973Z,21.67
2018-07-13T07:30:52.980Z,21.57
2018-07-13T07:31:52.986Z,21.64
2018-07-13T07:32:52.990Z,21.72
2018-07-13T07:33:52.999Z,21.69
2018-07-13T07:34:53.007Z,21.85
2018-07-13T07:35:53.008Z,22.19
2018-07-13T07:36:53.015Z,22.86
2018-07-13T07:37:53.025Z,23.52
2018-07-13T07:38:53.025Z,23.76
2018-07-13T07:39:53.068Z,23.87
2018-07-13T07:40:53.035Z,23.67
2018-07-13T07:41:53.060Z,23.40
2018-07-13T07:42:53.049Z,23.38
2018-07-13T07:43:53.065Z,23.24
2018-07-13T07:44:53.060Z,23.24
2018-07-13T07:45:53.068Z,23.12
2018-07-13T07:46:53.073Z,22.96
2018-07-13T07:47:53.085Z,23.02
2018-07-13T07:48:53.085Z,22.96
2018-07-13T07:49:53.140Z,22.93
2018-07-13T07:50:53.099Z,22.92
2018-07-13T07:51:53.103Z,22.94
2018-07-13T07:52:53.109Z,22.97
2018-07-13T07:53:53.115Z,22.99
2018-07-13T07:54:53.122Z,23.52
2018-07-13T07:55:53.175Z,24.19
2018-07-13T07:56:53.133Z,24.69
2018-07-13T07:57:53.139Z,25.24
2018-07-13T07:58:53.168Z,25.35
2018-07-13T07:59:53.157Z,25.71
2018-07-13T08:00:53.162Z,26.02
2018-07-13T08:01:53.232Z,26.24
2018-07-13T08:02:53.174Z,26.20
2018-07-13T08:03:53.179Z,26.32
2018-07-13T08:04:53.190Z,26.35
2018-07-13T08:05:53.208Z,26.43
2018-07-13T08:06:53.636Z,26.44
2018-07-13T08:07:53.213Z,26.55
2018-07-13T08:08:53.228Z,26.62
2018-07-13T08:09:53.230Z,26.62
2018-07-13T08:10:53.248Z,26.31
2018-07-13T08:11:53.248Z,26.43
2018-07-13T08:12:53.255Z,25.97
2018-07-13T08:13:53.372Z,26.08
2018-07-13T08:14:53.276Z,26.09
2018-07-13T08:15:53.284Z,26.24
2018-07-13T08:16:53.319Z,26.27
2018-07-13T08:17:53.329Z,26.39
2018-07-13T08:18:53.317Z,26.31
2018-07-13T08:19:53.328Z,26.36
2018-07-13T08:20:53.335Z,26.36
2018-07-13T08:21:53.346Z,26.29
2018-07-13T08:22:53.358Z,26.24
2018-07-13T08:23:53.368Z,26.15
2018-07-13T08:24:53.378Z,26.21
2018-07-13T08:25:53.390Z,26.24
2018-07-13T08:26:53.400Z,26.28
2018-07-13T08:27:53.414Z,26.32
2018-07-13T08:28:53.422Z,26.62
2018-07-13T08:29:53.432Z,26.83
2018-07-13T08:30:53.444Z,26.81
2018-07-13T08:31:53.454Z,26.83
2018-07-13T08:32:53.467Z,27.06
2018-07-13T08:33:53.478Z,27.06
2018-07-13T08:34:53.490Z,27.14
2018-07-13T08:35:53.517Z,27.19
2018-07-13T08:36:53.517Z,27.33
2018-07-13T08:37:53.560Z,27.17
2018-07-13T08:38:53.538Z,27.23
2018-07-13T08:39:53.549Z,27.14
2018-07-13T08:40:53.566Z,27.02
2018-07-13T08:41:53.577Z,26.57
2018-07-13T08:42:53.588Z,26.65
2018-07-13T08:43:53.606Z,26.50
2018-07-13T08:44:53.613Z,26.69
2018-07-13T08:45:53.626Z,26.81
2018-07-13T08:46:53.639Z,26.69
2018-07-13T08:47:53.649Z,26.74
2018-07-13T08:48:53.663Z,26.77
2018-07-13T08:49:53.681Z,26.89
2018-07-13T08:50:53.688Z,26.54
2018-07-13T08:51:53.715Z,26.55
2018-07-13T08:52:53.718Z,26.73
2018-07-13T08:53:53.729Z,26.79
2018-07-13T08:54:53.758Z,26.77
2018-07-13T08:55:53.753Z,26.87
2018-07-13T08:56:53.769Z,26.76
2018-07-13T08:57:53.789Z,26.76
2018-07-13T08:58:53.797Z,26.69
2018-07-13T08:59:53.893Z,26.67
2018-07-13T09:00:53.829Z,26.69
2018-07-13T09:01:53.836Z,26.57
2018-07-13T09:02:53.859Z,26.69
2018-07-13T09:03:53.873Z,26.80
2018-07-13T09:04:53.872Z,26.98
2018-07-13T09:05:53.957Z,27.02
2018-07-13T09:06:53.900Z,27.04
2018-07-13T09:07:53.909Z,26.76
2018-07-13T09:08:53.924Z,26.79
2018-07-13T09:09:53.934Z,26.74
2018-07-13T09:10:54.080Z,26.49
2018-07-13T09:11:53.989Z,26.61
2018-07-13T09:12:54.030Z,26.55
2018-07-13T09:13:55.645Z,26.79
2018-07-13T09:14:53.997Z,26.96
2018-07-13T09:15:54.021Z,26.98
2018-07-13T09:16:54.019Z,27.05
2018-07-13T09:17:54.033Z,27.14
2018-07-13T09:18:54.045Z,27.32
2018-07-13T09:19:54.054Z,27.16
2018-07-13T09:20:54.066Z,27.31
2018-07-13T09:21:54.079Z,27.23
2018-07-13T09:22:54.092Z,27.31
2018-07-13T09:23:54.102Z,27.43
2018-07-13T09:24:54.121Z,27.42
2018-07-13T09:25:54.122Z,27.38
2018-07-13T09:26:54.133Z,27.32
2018-07-13T09:27:54.145Z,27.35
2018-07-13T09:28:54.153Z,27.26
2018-07-13T09:29:54.165Z,27.32
2018-07-13T09:30:54.174Z,27.36
2018-07-13T09:31:54.184Z,27.43
2018-07-13T09:32:54.192Z,27.36
2018-07-13T09:33:54.204Z,27.48
2018-07-13T09:34:54.227Z,27.42
2018-07-13T09:35:54.225Z,27.43
2018-07-13T09:36:54.245Z,27.57
2018-07-13T09:37:54.273Z,27.71
2018-07-13T09:38:54.252Z,27.77
2018-07-13T09:39:54.275Z,27.77
2018-07-13T09:40:54.271Z,27.67
2018-07-13T09:41:54.281Z,27.74
2018-07-13T09:42:54.290Z,27.61
2018-07-13T09:43:54.304Z,27.66
2018-07-13T09:44:54.312Z,27.64
2018-07-13T09:45:54.317Z,27.57
2018-07-13T09:46:54.514Z,27.67
2018-07-13T09:47:54.337Z,27.88
2018-07-13T09:48:54.345Z,27.86
2018-07-13T09:49:54.368Z,27.85
2018-07-13T09:50:54.376Z,27.85
2018-07-13T09:51:54.384Z,27.74
2018-07-13T09:52:54.386Z,27.74
2018-07-13T09:53:54.515Z,27.46
2018-07-13T09:54:54.418Z,27.09
2018-07-13T09:55:54.410Z,27.17
2018-07-13T09:56:54.421Z,27.16
2018-07-13T09:57:54.442Z,26.94
2018-07-13T09:58:54.444Z,26.96
2018-07-13T09:59:54.451Z,27.13
2018-07-13T10:00:54.543Z,27.33
2018-07-13T10:01:54.467Z,27.53
2018-07-13T10:02:54.474Z,27.71
2018-07-13T10:03:54.483Z,27.48
2018-07-13T10:04:54.496Z,27.46
2018-07-13T10:05:54.503Z,27.58
2018-07-13T10:06:54.510Z,27.35
2018-07-13T10:07:54.519Z,27.39
2018-07-13T10:08:54.528Z,27.50
2018-07-13T10:09:54.555Z,27.41
2018-07-13T10:10:54.548Z,27.19
2018-07-13T10:11:54.553Z,27.14
2018-07-13T10:12:54.562Z,27.35
2018-07-13T10:13:54.570Z,27.50
2018-07-13T10:14:54.580Z,27.66
2018-07-13T10:15:54.592Z,27.58
2018-07-13T10:16:54.597Z,27.66
2018-07-13T10:17:54.606Z,27.67
2018-07-13T10:18:54.616Z,27.74
2018-07-13T10:19:54.623Z,27.84
2018-07-13T10:20:54.637Z,27.95
2018-07-13T10:21:54.647Z,27.96
2018-07-13T10:22:54.658Z,28.03
2018-07-13T10:23:54.668Z,28.11
2018-07-13T10:24:54.664Z,28.09
2018-07-13T10:25:54.679Z,27.84
2018-07-13T10:26:54.708Z,27.80
2018-07-13T10:27:54.691Z,27.79
2018-07-13T10:28:54.701Z,27.94
2018-07-13T10:29:54.706Z,27.92
2018-07-13T10:30:54.721Z,27.85
2018-07-13T10:31:54.726Z,27.79
2018-07-13T10:32:54.735Z,27.92
2018-07-13T10:33:54.742Z,28.10
2018-07-13T10:34:54.749Z,28.13
2018-07-13T10:35:54.757Z,28.09
2018-07-13T10:36:54.786Z,28.22
2018-07-13T10:37:54.779Z,28.25
2018-07-13T10:38:54.785Z,28.13
2018-07-13T10:39:54.794Z,28.14
2018-07-13T10:40:54.802Z,28.16
2018-07-13T10:41:54.811Z,28.31
2018-07-13T10:42:54.837Z,28.44
2018-07-13T10:43:54.831Z,28.62
2018-07-13T10:44:54.838Z,28.59
2018-07-13T10:45:54.848Z,28.58
2018-07-13T10:46:54.855Z,28.50
2018-07-13T10:47:54.862Z,28.50
2018-07-13T10:48:54.871Z,28.54
2018-07-13T10:49:54.880Z,28.58
2018-07-13T10:50:54.888Z,28.50
2018-07-13T10:51:54.899Z,28.47
2018-07-13T10:52:54.908Z,28.56
2018-07-13T10:53:56.675Z,28.65
2018-07-13T10:54:54.932Z,28.69
2018-07-13T10:55:54.934Z,28.80
2018-07-13T10:56:54.991Z,28.82
2018-07-13T10:57:54.957Z,28.60
2018-07-13T10:58:54.961Z,28.53
2018-07-13T10:59:54.970Z,28.59
2018-07-13T11:00:54.982Z,28.47
2018-07-13T11:01:54.988Z,28.41
2018-07-13T11:02:55.004Z,28.33
2018-07-13T11:03:55.004Z,28.44
2018-07-13T11:04:55.015Z,28.47
2018-07-13T11:05:55.022Z,28.63
2018-07-13T11:06:55.034Z,28.47
2018-07-13T11:07:55.048Z,28.41
2018-07-13T11:08:55.050Z,28.41
2018-07-13T11:09:55.057Z,28.33
2018-07-13T11:10:55.065Z,28.43
2018-07-13T11:11:55.073Z,28.26
2018-07-13T11:12:55.085Z,28.40
2018-07-13T11:13:55.228Z,28.32
2018-07-13T11:14:57.679Z,28.36
2018-07-13T11:15:55.108Z,28.47
2018-07-13T11:16:55.118Z,28.63
2018-07-13T11:17:55.126Z,28.60
2018-07-13T11:18:55.141Z,28.66
2018-07-13T11:19:55.144Z,28.70
2018-07-13T11:20:55.152Z,28.84
2018-07-13T11:21:55.158Z,28.81
2018-07-13T11:22:55.168Z,28.47
2018-07-13T11:23:55.177Z,27.74
2018-07-13T11:24:55.185Z,27.67
2018-07-13T11:25:55.897Z,27.82
2018-07-13T11:26:55.206Z,27.96
2018-07-13T11:27:55.220Z,28.10
2018-07-13T11:28:55.222Z,28.21
2018-07-13T11:29:55.227Z,28.17
2018-07-13T11:30:55.237Z,28.25
2018-07-13T11:31:55.246Z,28.26
2018-07-13T11:32:55.268Z,28.41
2018-07-13T11:33:55.261Z,28.50
2018-07-13T11:34:55.285Z,28.23
2018-07-13T11:35:55.288Z,28.29
2018-07-13T11:36:55.384Z,28.47
2018-07-13T11:37:55.298Z,28.62
2018-07-13T11:38:55.304Z,28.87
2018-07-13T11:39:55.315Z,28.81
2018-07-13T11:40:55.320Z,28.85
2018-07-13T11:41:55.346Z,29.04
2018-07-13T11:42:55.340Z,29.13
2018-07-13T11:43:55.351Z,29.18
2018-07-13T11:44:55.354Z,29.03
2018-07-13T11:45:55.361Z,29.13
2018-07-13T11:46:55.371Z,29.01
2018-07-13T11:47:55.380Z,28.90
2018-07-13T11:48:55.388Z,28.81
2018-07-13T11:49:55.626Z,28.54
2018-07-13T11:50:55.942Z,28.28
2018-07-13T11:51:55.416Z,28.23
2018-07-13T11:52:55.424Z,28.33
2018-07-13T11:53:55.440Z,28.44
2018-07-13T11:54:55.525Z,28.38
2018-07-13T11:55:55.457Z,28.56
2018-07-13T11:56:55.459Z,28.70
2018-07-13T11:57:55.467Z,28.90
2018-07-13T11:58:55.475Z,28.81
2018-07-13T11:59:55.484Z,29.00
2018-07-13T12:00:55.494Z,29.00
2018-07-13T12:01:55.562Z,28.97
2018-07-13T12:02:55.510Z,29.13
2018-07-13T12:03:55.518Z,29.22
2018-07-13T12:04:55.526Z,29.25
2018-07-13T12:05:55.536Z,29.35
2018-07-13T12:06:55.545Z,29.41
2018-07-13T12:07:55.556Z,29.60
2018-07-13T12:08:55.576Z,29.55
2018-07-13T12:09:55.569Z,29.53
2018-07-13T12:10:55.587Z,29.22
2018-07-13T12:11:55.585Z,29.26
2018-07-13T12:12:55.656Z,29.40
2018-07-13T12:13:55.606Z,29.45
2018-07-13T12:14:55.613Z,29.47
2018-07-13T12:15:55.621Z,29.35
2018-07-13T12:16:55.634Z,29.43
2018-07-13T12:17:55.639Z,29.45
2018-07-13T12:18:55.654Z,29.53
2018-07-13T12:19:55.706Z,29.53
2018-07-13T12:20:55.667Z,29.62
2018-07-13T12:21:55.676Z,29.04
2018-07-13T12:22:55.683Z,28.88
2018-07-13T12:23:55.727Z,28.73
2018-07-13T12:24:55.697Z,28.80
2018-07-13T12:25:55.731Z,28.69
2018-07-13T12:26:55.732Z,28.58
2018-07-13T12:27:55.758Z,28.04
2018-07-13T12:28:55.736Z,27.91
2018-07-13T12:29:55.745Z,27.86
2018-07-13T12:30:55.758Z,28.04
2018-07-13T12:31:55.872Z,28.22
2018-07-13T12:32:55.780Z,28.28
2018-07-13T12:33:55.782Z,28.36
2018-07-13T12:34:55.785Z,28.47
2018-07-13T12:35:55.792Z,28.59
2018-07-13T12:36:55.820Z,28.60
2018-07-13T12:37:55.828Z,28.41
2018-07-13T12:38:55.822Z,28.53
2018-07-13T12:39:55.919Z,28.65
2018-07-13T12:40:55.837Z,28.77
2018-07-13T12:41:55.854Z,28.88
2018-07-13T12:42:57.709Z,29.08
2018-07-13T12:43:55.861Z,29.16
2018-07-13T12:44:58.711Z,28.84
2018-07-13T12:45:55.941Z,28.91
2018-07-13T12:46:55.889Z,28.88
2018-07-13T12:47:55.895Z,28.82
2018-07-13T12:48:56.000Z,28.85
2018-07-13T12:49:55.914Z,28.84
2018-07-13T12:50:55.921Z,28.77
2018-07-13T12:51:55.930Z,28.72
2018-07-13T12:52:55.939Z,28.59
2018-07-13T12:53:55.988Z,28.44
2018-07-13T12:54:55.959Z,28.10